createdAt,value
2022-12-03T00:00:01.135Z,102218.19
2022-12-03T00:02:32.357Z,102226.56
2022-12-03T00:04:59.750Z,102238.16
2022-12-03T00:07:27.041Z,102241.06
2022-12-03T00:09:54.368Z,102248.09
2022-12-03T00:12:21.377Z,102232.72
2022-12-03T00:14:48.696Z,102269.09
2022-12-03T00:17:16.061Z,102233.56
2022-12-03T00:19:43.246Z,102245.88
2022-12-03T00:22:12.639Z,102247.38
2022-12-03T00:24:40.080Z,102249.63
2022-12-03T00:27:07.121Z,102246.22
2022-12-03T00:29:34.188Z,102251.81
2022-12-03T00:32:01.393Z,102264.28
2022-12-03T00:34:28.494Z,102241.25
2022-12-03T00:36:55.515Z,102243.47
2022-12-03T00:39:22.686Z,102254.91
2022-12-03T00:41:49.793Z,102238.69
2022-12-03T00:44:18.313Z,102224.66
2022-12-03T00:46:45.427Z,102241.25
2022-12-03T00:49:12.681Z,102254.91
2022-12-03T00:51:39.788Z,102253.19
2022-12-03T00:54:06.923Z,102245.31
2022-12-03T00:56:35.290Z,102242.63
2022-12-03T00:59:02.351Z,102258.78
2022-12-03T01:01:29.481Z,102257.63
2022-12-03T01:03:56.749Z,102252.34
2022-12-03T01:06:23.856Z,102264.13
2022-12-03T01:08:50.939Z,102270.59
2022-12-03T01:11:36.522Z,102256.06
2022-12-03T01:14:04.172Z,102261.56
2022-12-03T01:16:31.294Z,102281.84
2022-12-03T01:18:59.135Z,102258.78
2022-12-03T01:21:26.215Z,102248.34
2022-12-03T01:23:53.297Z,102267.41
2022-12-03T01:26:20.562Z,102266.63
2022-12-03T01:28:47.641Z,102260.31
2022-12-03T01:31:33.829Z,102264.72
2022-12-03T01:34:01.207Z,102267.56
2022-12-03T01:36:29.353Z,102285.66
2022-12-03T01:38:56.448Z,102274.00
2022-12-03T01:41:25.392Z,102275.13
2022-12-03T01:43:54.404Z,102277.50
2022-12-03T01:46:24.129Z,102263.88
2022-12-03T01:48:53.952Z,102261.81
2022-12-03T01:51:21.378Z,102255.25
2022-12-03T01:53:49.033Z,102230.81
2022-12-03T01:56:17.402Z,102250.63
2022-12-03T01:58:45.924Z,102269.75
2022-12-03T02:01:15.894Z,102292.06
2022-12-03T02:03:44.413Z,102262.91
2022-12-03T02:06:20.624Z,102283.38
2022-12-03T02:08:48.618Z,102278.56
2022-12-03T02:11:25.564Z,102276.06
2022-12-03T02:14:16.847Z,102298.16
2022-12-03T02:16:44.698Z,102306.97
2022-12-03T02:19:41.157Z,102294.09
2022-12-03T02:22:20.457Z,102286.38
2022-12-03T02:25:03.910Z,102287.22
2022-12-03T02:27:30.996Z,102292.81
2022-12-03T02:29:58.281Z,102308.31
2022-12-03T02:32:25.919Z,102289.50
2022-12-03T02:34:53.444Z,102300.41
2022-12-03T02:37:29.797Z,102314.59
2022-12-03T02:40:01.701Z,102311.84
2022-12-03T02:42:36.897Z,102310.06
2022-12-03T02:45:11.588Z,102312.72
2022-12-03T02:47:45.972Z,102295.38
2022-12-03T02:50:17.629Z,102315.50
2022-12-03T02:52:46.664Z,102315.69
2022-12-03T02:55:15.804Z,102318.81
2022-12-03T02:57:46.441Z,102309.75
2022-12-03T03:00:14.341Z,102324.06
2022-12-03T03:02:42.794Z,102313.34
2022-12-03T03:05:25.660Z,102309.41
2022-12-03T03:07:52.815Z,102329.94
2022-12-03T03:10:23.144Z,102338.38
2022-12-03T03:12:52.871Z,102321.16
2022-12-03T03:15:20.971Z,102335.22
2022-12-03T03:17:50.037Z,102306.72
2022-12-03T03:20:17.718Z,102326.19
2022-12-03T03:22:44.897Z,102317.94
2022-12-03T03:25:18.929Z,102330.09
2022-12-03T03:27:46.936Z,102331.97
2022-12-03T03:30:14.832Z,102337.44
2022-12-03T03:32:43.079Z,102341.00
2022-12-03T03:35:11.619Z,102350.56
2022-12-03T03:37:39.235Z,102337.53
2022-12-03T03:40:07.862Z,102347.69
2022-12-03T03:42:35.682Z,102346.03
2022-12-03T03:45:02.867Z,102350.69
2022-12-03T03:47:30.807Z,102364.06
2022-12-03T03:49:57.950Z,102358.84
2022-12-03T03:52:25.331Z,102363.78
2022-12-03T03:54:52.793Z,102377.25
2022-12-03T03:57:20.342Z,102349.66
2022-12-03T03:59:47.461Z,102359.03
2022-12-03T04:02:22.774Z,102346.97
2022-12-03T04:04:52.220Z,102366.59
2022-12-03T04:07:19.807Z,102339.38
2022-12-03T04:09:47.000Z,102361.91
2022-12-03T04:12:32.765Z,102395.06
2022-12-03T04:15:01.269Z,102369.91
2022-12-03T04:17:28.625Z,102364.50
2022-12-03T04:19:56.039Z,102355.63
2022-12-03T04:22:41.360Z,102376.03
2022-12-03T04:25:27.906Z,102407.91
2022-12-03T04:28:13.488Z,102402.16
2022-12-03T04:30:40.630Z,102378.97
2022-12-03T04:33:26.175Z,102397.41
2022-12-03T04:35:53.438Z,102388.59
2022-12-03T04:38:20.530Z,102382.66
2022-12-03T04:41:04.393Z,102398.66
2022-12-03T04:43:33.866Z,102402.91
2022-12-03T04:46:01.704Z,102399.38
2022-12-03T04:48:30.200Z,102388.19
2022-12-03T04:50:57.454Z,102410.69
2022-12-03T04:53:24.661Z,102405.03
2022-12-03T04:55:52.944Z,102407.66
2022-12-03T04:58:20.116Z,102417.72
2022-12-03T05:00:47.386Z,102400.41
2022-12-03T05:03:14.555Z,102405.84
2022-12-03T05:05:42.057Z,102423.94
2022-12-03T05:08:09.420Z,102427.56
2022-12-03T05:10:36.500Z,102399.69
2022-12-03T05:13:03.703Z,102394.25
2022-12-03T05:15:30.780Z,102404.88
2022-12-03T05:17:57.913Z,102427.19
2022-12-03T05:20:46.979Z,102420.06
2022-12-03T05:23:18.573Z,102432.72
2022-12-03T05:25:45.788Z,102438.53
2022-12-03T05:28:13.203Z,102437.81
2022-12-03T05:30:40.552Z,102431.50
2022-12-03T05:33:08.054Z,102440.66
2022-12-03T05:35:35.320Z,102434.38
2022-12-03T05:38:02.353Z,102441.06
2022-12-03T05:40:29.548Z,102435.06
2022-12-03T05:43:01.444Z,102445.34
2022-12-03T05:45:31.480Z,102437.63
2022-12-03T05:48:00.521Z,102461.72
2022-12-03T05:50:30.330Z,102453.91
2022-12-03T05:52:58.061Z,102442.44
2022-12-03T05:55:26.128Z,102447.38
2022-12-03T05:57:53.375Z,102444.47
2022-12-03T06:00:26.350Z,102449.69
2022-12-03T06:02:54.184Z,102463.31
2022-12-03T06:05:22.500Z,102468.03
2022-12-03T06:07:51.271Z,102480.34
2022-12-03T06:10:23.529Z,102468.25
2022-12-03T06:12:51.290Z,102471.13
2022-12-03T06:15:19.139Z,102471.31
2022-12-03T06:17:46.768Z,102480.81
2022-12-03T06:20:17.077Z,102456.56
2022-12-03T06:22:44.275Z,102472.50
2022-12-03T06:25:12.196Z,102469.22
2022-12-03T06:27:41.295Z,102458.75
2022-12-03T06:30:13.143Z,102460.63
2022-12-03T06:32:41.709Z,102485.25
2022-12-03T06:35:09.274Z,102472.31
2022-12-03T06:37:36.346Z,102472.97
2022-12-03T06:40:04.559Z,102484.91
2022-12-03T06:42:31.650Z,102481.72
2022-12-03T06:44:58.803Z,102475.56
2022-12-03T06:47:26.073Z,102498.28
2022-12-03T06:49:53.190Z,102484.84
2022-12-03T06:52:20.855Z,102475.72
2022-12-03T06:54:47.917Z,102472.25
2022-12-03T06:57:15.751Z,102477.09
2022-12-03T06:59:42.932Z,102469.22
2022-12-03T07:02:11.650Z,102468.88
2022-12-03T07:04:42.138Z,102492.59
2022-12-03T07:07:13.114Z,102481.84
2022-12-03T07:09:40.330Z,102495.91
2022-12-03T07:12:07.487Z,102494.03
2022-12-03T07:14:34.688Z,102492.16
2022-12-03T07:17:02.328Z,102477.28
2022-12-03T07:19:32.723Z,102500.91
2022-12-03T07:22:01.036Z,102486.19
2022-12-03T07:24:28.813Z,102506.19
2022-12-03T07:26:56.472Z,102497.28
2022-12-03T07:29:24.048Z,102487.03
2022-12-03T07:31:51.677Z,102500.03
2022-12-03T07:34:18.968Z,102482.09
2022-12-03T07:36:46.309Z,102509.09
2022-12-03T07:39:14.047Z,102497.13
2022-12-03T07:41:41.136Z,102481.75
2022-12-03T07:44:14.248Z,102492.03
2022-12-03T07:46:42.530Z,102485.34
2022-12-03T07:49:09.963Z,102499.84
2022-12-03T07:51:37.263Z,102504.31
2022-12-03T07:54:05.165Z,102491.66
2022-12-03T07:56:32.281Z,102501.75
2022-12-03T07:59:00.709Z,102494.72
2022-12-03T08:01:27.865Z,102460.16
2022-12-03T08:03:55.328Z,102489.22
2022-12-03T08:06:23.228Z,102486.91
2022-12-03T08:08:50.484Z,102454.41
2022-12-03T08:11:18.011Z,102477.91
2022-12-03T08:13:45.039Z,102477.22
2022-12-03T08:16:18.336Z,102506.28
2022-12-03T08:18:47.122Z,102487.09
2022-12-03T08:21:17.209Z,102476.28
2022-12-03T08:23:44.714Z,102464.22
2022-12-03T08:26:25.362Z,102491.06
2022-12-03T08:28:53.352Z,102482.72
2022-12-03T08:31:32.850Z,102477.00
2022-12-03T08:34:19.701Z,102463.97
2022-12-03T08:36:48.257Z,102470.91
2022-12-03T08:39:34.000Z,102478.59
2022-12-03T08:42:30.761Z,102471.38
2022-12-03T08:45:32.443Z,102470.81
2022-12-03T08:48:07.632Z,102480.94
2022-12-03T08:50:41.624Z,102472.84
2022-12-03T08:53:29.418Z,102465.03
2022-12-03T08:56:05.082Z,102469.81
2022-12-03T08:58:43.813Z,102465.69
2022-12-03T09:01:10.962Z,102473.34
2022-12-03T09:03:42.875Z,102434.41
2022-12-03T09:06:11.610Z,102454.91
2022-12-03T09:08:39.070Z,102448.38
2022-12-03T09:11:06.340Z,102462.63
2022-12-03T09:13:33.429Z,102453.88
2022-12-03T09:16:00.525Z,102456.28
2022-12-03T09:18:27.851Z,102459.47
2022-12-03T09:20:56.568Z,102471.66
2022-12-03T09:23:24.010Z,102474.03
2022-12-03T09:25:51.062Z,102437.94
2022-12-03T09:28:18.272Z,102478.91
2022-12-03T09:30:45.555Z,102493.88
2022-12-03T09:33:14.897Z,102460.66
2022-12-03T09:35:42.080Z,102468.44
2022-12-03T09:38:09.386Z,102471.22
2022-12-03T09:40:36.722Z,102448.06
2022-12-03T09:43:04.734Z,102482.16
2022-12-03T09:45:31.928Z,102459.94
2022-12-03T09:48:01.639Z,102468.97
2022-12-03T09:50:29.463Z,102479.47
2022-12-03T09:53:00.201Z,102462.38
2022-12-03T09:55:28.706Z,102443.00
2022-12-03T09:57:58.131Z,102460.03
2022-12-03T10:00:28.443Z,102465.94
2022-12-03T10:02:59.694Z,102463.22
2022-12-03T10:05:28.651Z,102467.94
2022-12-03T10:08:00.529Z,102469.22
2022-12-03T10:10:27.989Z,102476.22
2022-12-03T10:12:55.274Z,102458.47
2022-12-03T10:15:23.731Z,102473.75
2022-12-03T10:17:56.465Z,102485.41
2022-12-03T10:20:26.137Z,102474.03
2022-12-03T10:22:53.402Z,102482.09
2022-12-03T10:25:22.903Z,102483.16
2022-12-03T10:28:07.113Z,102464.19
2022-12-03T10:30:34.535Z,102464.56
2022-12-03T10:33:17.363Z,102463.06
2022-12-03T10:35:46.233Z,102475.19
2022-12-03T10:38:25.339Z,102476.69
2022-12-03T10:40:52.882Z,102469.75
2022-12-03T10:43:19.919Z,102470.53
2022-12-03T10:46:09.752Z,102486.38
2022-12-03T10:48:36.988Z,102477.56
2022-12-03T10:51:17.087Z,102460.88
2022-12-03T10:53:44.618Z,102499.34
2022-12-03T10:56:24.575Z,102465.50
2022-12-03T10:58:52.129Z,102479.66
2022-12-03T11:01:25.602Z,102484.09
2022-12-03T11:03:54.569Z,102468.38
2022-12-03T11:06:23.635Z,102475.81
2022-12-03T11:08:58.540Z,102481.44
2022-12-03T11:11:31.297Z,102498.59
2022-12-03T11:14:02.862Z,102510.44
2022-12-03T11:16:42.124Z,102495.75
2022-12-03T11:19:18.431Z,102479.06
2022-12-03T11:22:05.206Z,102483.91
2022-12-03T11:24:34.927Z,102477.47
2022-12-03T11:27:02.032Z,102473.78
2022-12-03T11:30:08.214Z,102480.50
2022-12-03T11:32:38.473Z,102488.06
2022-12-03T11:35:25.870Z,102503.97
2022-12-03T11:37:53.199Z,102484.84
2022-12-03T11:40:20.338Z,102491.69
2022-12-03T11:42:48.909Z,102479.34
2022-12-03T11:45:33.395Z,102487.97
2022-12-03T11:48:06.045Z,102492.59
2022-12-03T11:50:41.090Z,102471.41
2022-12-03T11:53:08.082Z,102488.16
2022-12-03T11:55:38.987Z,102488.44
2022-12-03T11:58:17.207Z,102472.69
2022-12-03T12:00:53.052Z,102468.38
2022-12-03T12:03:34.844Z,102481.38
2022-12-03T12:06:13.260Z,102499.53
2022-12-03T12:08:52.623Z,102485.41
2022-12-03T12:11:31.838Z,102493.88
2022-12-03T12:14:13.263Z,102488.84
2022-12-03T12:16:42.820Z,102497.19
2022-12-03T12:19:38.444Z,102494.22
2022-12-03T12:22:19.993Z,102498.03
2022-12-03T12:24:51.873Z,102505.22
2022-12-03T12:27:29.673Z,102479.06
2022-12-03T12:29:59.065Z,102508.63
2022-12-03T12:32:35.502Z,102495.66
2022-12-03T12:35:24.653Z,102490.63
2022-12-03T12:38:00.896Z,102508.56
2022-12-03T12:40:31.364Z,102494.13
2022-12-03T12:43:08.208Z,102494.88
2022-12-03T12:45:39.988Z,102492.31
2022-12-03T12:48:12.397Z,102505.50
2022-12-03T12:50:40.738Z,102509.56
2022-12-03T12:53:11.420Z,102513.72
2022-12-03T12:55:39.834Z,102511.47
2022-12-03T12:58:19.080Z,102518.94
2022-12-03T13:00:55.020Z,102542.44
2022-12-03T13:03:26.041Z,102521.47
2022-12-03T13:05:56.430Z,102527.84
2022-12-03T13:08:34.098Z,102543.88
2022-12-03T13:11:03.097Z,102545.75
2022-12-03T13:13:31.931Z,102534.47
2022-12-03T13:16:07.377Z,102509.63
2022-12-03T13:18:54.929Z,102523.84
2022-12-03T13:21:44.403Z,102531.06
2022-12-03T13:24:32.853Z,102554.28
2022-12-03T13:27:05.320Z,102536.22
2022-12-03T13:29:32.571Z,102552.41
2022-12-03T13:32:20.266Z,102553.47
2022-12-03T13:34:50.581Z,102571.06
2022-12-03T13:37:23.880Z,102559.94
2022-12-03T13:39:56.883Z,102561.28
2022-12-03T13:42:42.049Z,102548.47
2022-12-03T13:45:18.128Z,102566.06
2022-12-03T13:47:50.569Z,102557.84
2022-12-03T13:50:33.509Z,102577.91
2022-12-03T13:53:03.402Z,102554.94
2022-12-03T13:55:32.157Z,102586.16
2022-12-03T13:57:59.478Z,102582.38
2022-12-03T14:00:26.807Z,102589.19
2022-12-03T14:02:54.855Z,102609.44
2022-12-03T14:05:22.195Z,102578.16
2022-12-03T14:07:49.393Z,102591.03
2022-12-03T14:10:17.007Z,102587.97
2022-12-03T14:12:44.347Z,102596.81
2022-12-03T14:15:11.536Z,102611.38
2022-12-03T14:17:39.214Z,102596.47
2022-12-03T14:20:08.295Z,102606.97
2022-12-03T14:22:38.182Z,102600.75
2022-12-03T14:25:07.168Z,102585.56
2022-12-03T14:27:34.577Z,102574.09
2022-12-03T14:30:01.730Z,102617.56
2022-12-03T14:32:29.390Z,102609.16
2022-12-03T14:34:57.067Z,102631.94
2022-12-03T14:37:24.092Z,102624.91
2022-12-03T14:39:51.316Z,102646.38
2022-12-03T14:42:18.570Z,102615.06
2022-12-03T14:44:48.309Z,102622.59
2022-12-03T14:47:20.264Z,102642.97
2022-12-03T14:49:47.734Z,102633.94
2022-12-03T14:52:15.257Z,102624.72
2022-12-03T14:54:43.007Z,102626.94
2022-12-03T14:57:12.794Z,102655.16
2022-12-03T14:59:41.638Z,102632.72
2022-12-03T15:02:10.187Z,102645.94
2022-12-03T15:04:38.262Z,102658.09
2022-12-03T15:07:07.143Z,102648.84
2022-12-03T15:09:35.029Z,102660.31
2022-12-03T15:12:03.534Z,102650.56
2022-12-03T15:14:32.675Z,102671.13
2022-12-03T15:17:02.005Z,102677.09
2022-12-03T15:19:30.421Z,102665.97
2022-12-03T15:22:00.302Z,102683.94
2022-12-03T15:24:27.523Z,102669.06
2022-12-03T15:26:55.952Z,102678.97
2022-12-03T15:29:23.727Z,102682.41
2022-12-03T15:31:50.953Z,102666.47
2022-12-03T15:34:22.525Z,102668.34
2022-12-03T15:36:51.288Z,102694.03
2022-12-03T15:39:18.655Z,102676.56
2022-12-03T15:41:45.823Z,102673.81
2022-12-03T15:44:12.862Z,102635.50
2022-12-03T15:46:40.176Z,102690.97
2022-12-03T15:49:07.414Z,102677.59
2022-12-03T15:51:34.533Z,102708.09
2022-12-03T15:54:01.717Z,102679.00
2022-12-03T15:56:28.974Z,102712.19
2022-12-03T15:58:56.058Z,102704.66
2022-12-03T16:01:23.316Z,102703.13
2022-12-03T16:03:50.494Z,102712.53
2022-12-03T16:06:18.310Z,102710.16
2022-12-03T16:08:46.388Z,102711.34
2022-12-03T16:11:13.516Z,102735.13
2022-12-03T16:13:40.786Z,102738.88
2022-12-03T16:16:08.716Z,102713.38
2022-12-03T16:18:35.843Z,102698.31
2022-12-03T16:21:03.353Z,102720.41
2022-12-03T16:23:30.453Z,102730.94
2022-12-03T16:25:58.270Z,102728.00
2022-12-03T16:28:26.550Z,102738.50
2022-12-03T16:30:54.076Z,102745.00
2022-12-03T16:33:27.076Z,102748.13
2022-12-03T16:35:54.983Z,102752.22
2022-12-03T16:38:22.058Z,102732.53
2022-12-03T16:40:49.516Z,102753.91
2022-12-03T16:43:16.745Z,102769.97
2022-12-03T16:46:03.081Z,102754.75
2022-12-03T16:48:30.487Z,102767.91
2022-12-03T16:50:57.647Z,102774.41
2022-12-03T16:53:24.831Z,102791.50
2022-12-03T16:55:51.893Z,102776.19
2022-12-03T16:58:21.586Z,102777.78
2022-12-03T17:00:49.827Z,102821.69
2022-12-03T17:03:18.068Z,102800.50
2022-12-03T17:05:46.210Z,102798.63
2022-12-03T17:08:14.276Z,102804.75
2022-12-03T17:10:41.761Z,102783.97
2022-12-03T17:13:10.558Z,102811.78
2022-12-03T17:15:39.081Z,102806.28
2022-12-03T17:18:07.558Z,102819.03
2022-12-03T17:20:35.859Z,102810.47
2022-12-03T17:23:03.897Z,102798.59
2022-12-03T17:25:31.148Z,102814.34
2022-12-03T17:27:58.455Z,102827.84
2022-12-03T17:30:25.748Z,102832.88
2022-12-03T17:32:53.187Z,102826.78
2022-12-03T17:35:20.434Z,102830.31
2022-12-03T17:37:47.710Z,102835.28
2022-12-03T17:40:17.380Z,102833.00
2022-12-03T17:42:45.378Z,102837.31
2022-12-03T17:45:13.466Z,102828.75
2022-12-03T17:47:40.949Z,102836.56
2022-12-03T17:50:08.759Z,102850.66
2022-12-03T17:52:35.867Z,102868.94
2022-12-03T17:55:14.216Z,102840.19
2022-12-03T17:57:45.174Z,102836.84
2022-12-03T18:00:12.812Z,102844.66
2022-12-03T18:02:40.692Z,102851.09
2022-12-03T18:05:08.271Z,102848.50
2022-12-03T18:07:35.734Z,102863.91
2022-12-03T18:10:03.081Z,102835.00
2022-12-03T18:12:30.955Z,102828.50
2022-12-03T18:14:58.310Z,102854.63
2022-12-03T18:17:25.506Z,102859.56
2022-12-03T18:19:53.084Z,102846.91
2022-12-03T18:22:20.659Z,102861.44
2022-12-03T18:24:51.514Z,102867.78
2022-12-03T18:27:20.925Z,102845.22
2022-12-03T18:29:48.395Z,102868.41
2022-12-03T18:32:28.300Z,102846.81
2022-12-03T18:34:57.342Z,102850.50
2022-12-03T18:37:29.016Z,102854.50
2022-12-03T18:39:57.460Z,102866.53
2022-12-03T18:42:25.236Z,102850.06
2022-12-03T18:44:54.926Z,102854.44
2022-12-03T18:47:25.043Z,102871.25
2022-12-03T18:49:52.856Z,102866.97
2022-12-03T18:52:22.192Z,102884.53
2022-12-03T18:54:49.902Z,102880.63
2022-12-03T18:57:17.830Z,102877.22
2022-12-03T18:59:45.255Z,102879.41
2022-12-03T19:02:32.480Z,102888.22
2022-12-03T19:05:04.500Z,102871.56
2022-12-03T19:07:31.595Z,102881.81
2022-12-03T19:09:58.922Z,102886.56
2022-12-03T19:12:26.232Z,102902.66
2022-12-03T19:14:53.306Z,102875.53
2022-12-03T19:17:21.603Z,102886.81
2022-12-03T19:19:48.828Z,102892.31
2022-12-03T19:22:15.934Z,102876.22
2022-12-03T19:24:43.831Z,102889.66
2022-12-03T19:27:11.012Z,102891.72
2022-12-03T19:29:38.514Z,102909.31
2022-12-03T19:32:05.780Z,102866.91
2022-12-03T19:34:33.293Z,102857.06
2022-12-03T19:37:00.512Z,102878.16
2022-12-03T19:39:27.610Z,102884.69
2022-12-03T19:41:54.710Z,102886.66
2022-12-03T19:44:22.402Z,102901.03
2022-12-03T19:46:51.288Z,102895.59
2022-12-03T19:49:21.053Z,102881.66
2022-12-03T19:51:49.732Z,102901.88
2022-12-03T19:54:19.248Z,102913.59
2022-12-03T19:56:48.351Z,102910.22
2022-12-03T19:59:17.546Z,102916.72
2022-12-03T20:01:44.992Z,102907.22
2022-12-03T20:04:13.219Z,102918.91
2022-12-03T20:06:41.073Z,102909.69
2022-12-03T20:09:12.126Z,102923.56
2022-12-03T20:11:41.617Z,102917.03
2022-12-03T20:14:12.921Z,102920.03
2022-12-03T20:16:40.665Z,102914.75
2022-12-03T20:19:10.806Z,102909.16
2022-12-03T20:21:39.139Z,102925.59
2022-12-03T20:24:07.321Z,102906.97
2022-12-03T20:26:34.863Z,102901.66
2022-12-03T20:29:02.297Z,102894.72
2022-12-03T20:31:31.757Z,102910.56
2022-12-03T20:34:02.301Z,102913.09
2022-12-03T20:36:31.771Z,102919.19
2022-12-03T20:39:02.323Z,102919.16
2022-12-03T20:41:29.882Z,102930.66
2022-12-03T20:43:57.275Z,102932.69
2022-12-03T20:46:29.355Z,102916.59
2022-12-03T20:48:57.810Z,102945.59
2022-12-03T20:51:28.216Z,102949.03
2022-12-03T20:53:56.316Z,102927.84
2022-12-03T20:56:31.424Z,102973.28
2022-12-03T20:59:08.343Z,102922.72
2022-12-03T21:01:36.515Z,102971.78
2022-12-03T21:04:05.384Z,102964.81
2022-12-03T21:06:35.036Z,102962.97
2022-12-03T21:09:04.637Z,102986.34
2022-12-03T21:11:34.044Z,102951.16
2022-12-03T21:14:01.168Z,102940.50
2022-12-03T21:17:06.019Z,102945.34
2022-12-03T21:19:20.810Z,102954.25
2022-12-03T21:21:48.656Z,102963.13
2022-12-03T21:24:15.765Z,102948.41
2022-12-03T21:26:43.029Z,102957.88
2022-12-03T21:29:10.321Z,102970.56
2022-12-03T21:31:39.914Z,102965.69
2022-12-03T21:34:08.901Z,102968.75
2022-12-03T21:36:36.363Z,102970.72
2022-12-03T21:39:05.269Z,102977.75
2022-12-03T21:41:32.682Z,102969.88
2022-12-03T21:43:59.811Z,102971.66
2022-12-03T21:47:12.751Z,102963.03
2022-12-03T21:49:14.688Z,102970.03
2022-12-03T21:51:41.895Z,102964.41
2022-12-03T21:54:08.964Z,102977.16
2022-12-03T21:56:36.572Z,102969.16
2022-12-03T21:59:04.086Z,102975.19
2022-12-03T22:01:31.360Z,102958.22
2022-12-03T22:03:59.148Z,102967.25
2022-12-03T22:06:26.290Z,102949.69
2022-12-03T22:08:53.504Z,102957.69
2022-12-03T22:11:23.859Z,102966.16
2022-12-03T22:13:51.608Z,102984.97
2022-12-03T22:16:20.755Z,102937.22
2022-12-03T22:18:48.317Z,102964.44
2022-12-03T22:21:18.354Z,102969.06
2022-12-03T22:23:46.801Z,102948.84
2022-12-03T22:26:16.532Z,102964.44
2022-12-03T22:28:46.413Z,102964.97
2022-12-03T22:31:14.440Z,102977.31
2022-12-03T22:33:41.974Z,102967.47
2022-12-03T22:36:18.066Z,102982.13
2022-12-03T22:38:48.377Z,102991.28
2022-12-03T22:41:16.652Z,102971.06
2022-12-03T22:43:44.796Z,102962.59
2022-12-03T22:46:12.984Z,102964.63
2022-12-03T22:48:41.934Z,102969.22
2022-12-03T22:51:18.686Z,102969.34
2022-12-03T22:53:46.044Z,102970.78
2022-12-03T22:56:13.885Z,102977.66
2022-12-03T22:58:41.419Z,102961.72
2022-12-03T23:01:09.020Z,102991.69
2022-12-03T23:03:36.925Z,102981.09
2022-12-03T23:06:12.275Z,102965.59
2022-12-03T23:08:39.783Z,102969.75
2022-12-03T23:11:07.613Z,102984.78
2022-12-03T23:13:35.897Z,102977.97
2022-12-03T23:16:03.781Z,102962.50
2022-12-03T23:18:31.201Z,102977.47
2022-12-03T23:20:59.043Z,102997.69
2022-12-03T23:23:28.264Z,102986.13
2022-12-03T23:26:07.492Z,102991.72
2022-12-03T23:28:39.093Z,103004.25
2022-12-03T23:31:14.275Z,102973.09
2022-12-03T23:33:41.225Z,102989.09
2022-12-03T23:36:08.684Z,102995.69
2022-12-03T23:38:36.085Z,102984.88
2022-12-03T23:41:12.204Z,103002.47
2022-12-03T23:43:40.297Z,103000.94
2022-12-03T23:46:12.949Z,103015.28
2022-12-03T23:48:40.455Z,103012.34
2022-12-03T23:51:10.587Z,103016.19
2022-12-03T23:53:38.453Z,103003.66
2022-12-03T23:56:17.997Z,102992.06
2022-12-03T23:58:46.366Z,103008.66
